sensor_id;sensor_type;location;lat;lon;timestamp;temperature;humidity
11764;DHT22;5939;56.522;14.950;2022-08-01T00:02:12;17.80;96.30
11764;DHT22;5939;56.522;14.950;2022-08-01T00:04:38;17.70;96.30
11764;DHT22;5939;56.522;14.950;2022-08-01T00:07:04;17.70;96.40
11764;DHT22;5939;56.522;14.950;2022-08-01T00:09:30;17.70;96.40
11764;DHT22;5939;56.522;14.950;2022-08-01T00:11:55;17.70;96.40
11764;DHT22;5939;56.522;14.950;2022-08-01T00:14:21;17.70;96.50
11764;DHT22;5939;56.522;14.950;2022-08-01T00:16:46;17.70;96.50
11764;DHT22;5939;56.522;14.950;2022-08-01T00:19:12;17.60;96.50
11764;DHT22;5939;56.522;14.950;2022-08-01T00:21:38;17.60;96.60
11764;DHT22;5939;56.522;14.950;2022-08-01T00:24:04;17.60;96.60
11764;DHT22;5939;56.522;14.950;2022-08-01T00:26:29;17.60;96.70
11764;DHT22;5939;56.522;14.950;2022-08-01T00:28:55;17.60;96.70
11764;DHT22;5939;56.522;14.950;2022-08-01T00:31:21;17.60;96.70
11764;DHT22;5939;56.522;14.950;2022-08-01T00:33:46;17.60;96.80
11764;DHT22;5939;56.522;14.950;2022-08-01T00:36:12;17.60;96.80
11764;DHT22;5939;56.522;14.950;2022-08-01T00:38:38;17.60;96.90
11764;DHT22;5939;56.522;14.950;2022-08-01T00:41:03;17.60;96.90
11764;DHT22;5939;56.522;14.950;2022-08-01T00:43:29;17.60;97.00
11764;DHT22;5939;56.522;14.950;2022-08-01T00:45:55;17.50;96.90
11764;DHT22;5939;56.522;14.950;2022-08-01T00:48:20;17.50;96.90
11764;DHT22;5939;56.522;14.950;2022-08-01T00:50:46;17.50;97.00
11764;DHT22;5939;56.522;14.950;2022-08-01T00:53:12;17.50;97.10
11764;DHT22;5939;56.522;14.950;2022-08-01T00:55:37;17.50;97.10
11764;DHT22;5939;56.522;14.950;2022-08-01T00:58:03;17.50;97.10
11764;DHT22;5939;56.522;14.950;2022-08-01T01:00:29;17.50;97.10
11764;DHT22;5939;56.522;14.950;2022-08-01T01:02:55;17.50;97.20
11764;DHT22;5939;56.522;14.950;2022-08-01T01:05:21;17.50;97.30
11764;DHT22;5939;56.522;14.950;2022-08-01T01:07:59;17.50;97.30
11764;DHT22;5939;56.522;14.950;2022-08-01T01:10:46;17.50;97.30
11764;DHT22;5939;56.522;14.950;2022-08-01T01:13:18;17.50;97.30
11764;DHT22;5939;56.522;14.950;2022-08-01T01:15:57;17.50;97.30
11764;DHT22;5939;56.522;14.950;2022-08-01T01:18:35;17.50;97.40
11764;DHT22;5939;56.522;14.950;2022-08-01T01:29:07;17.50;97.50
11764;DHT22;5939;56.522;14.950;2022-08-01T01:31:50;17.50;97.60
11764;DHT22;5939;56.522;14.950;2022-08-01T01:34:20;17.40;97.60
11764;DHT22;5939;56.522;14.950;2022-08-01T01:36:48;17.40;97.70
11764;DHT22;5939;56.522;14.950;2022-08-01T01:39:16;17.40;97.70
11764;DHT22;5939;56.522;14.950;2022-08-01T01:41:43;17.50;97.70
11764;DHT22;5939;56.522;14.950;2022-08-01T01:44:10;17.40;97.80
11764;DHT22;5939;56.522;14.950;2022-08-01T01:46:37;17.40;97.80
11764;DHT22;5939;56.522;14.950;2022-08-01T01:49:05;17.40;98.20
11764;DHT22;5939;56.522;14.950;2022-08-01T01:51:35;17.50;97.90
11764;DHT22;5939;56.522;14.950;2022-08-01T01:54:02;17.40;97.80
11764;DHT22;5939;56.522;14.950;2022-08-01T01:56:30;17.40;98.00
11764;DHT22;5939;56.522;14.950;2022-08-01T01:58:58;17.40;98.00
11764;DHT22;5939;56.522;14.950;2022-08-01T02:01:28;17.40;98.00
11764;DHT22;5939;56.522;14.950;2022-08-01T02:03:56;17.40;98.00
11764;DHT22;5939;56.522;14.950;2022-08-01T02:06:24;17.40;98.00
11764;DHT22;5939;56.522;14.950;2022-08-01T02:08:52;17.40;98.00
11764;DHT22;5939;56.522;14.950;2022-08-01T02:11:20;17.40;98.00
11764;DHT22;5939;56.522;14.950;2022-08-01T02:13:59;17.40;98.10
11764;DHT22;5939;56.522;14.950;2022-08-01T02:16:28;17.40;98.00
11764;DHT22;5939;56.522;14.950;2022-08-01T02:18:55;17.40;98.10
11764;DHT22;5939;56.522;14.950;2022-08-01T02:24:35;17.40;98.30
11764;DHT22;5939;56.522;14.950;2022-08-01T02:27:07;17.40;98.30
11764;DHT22;5939;56.522;14.950;2022-08-01T02:29:39;17.40;98.20
11764;DHT22;5939;56.522;14.950;2022-08-01T02:32:07;17.40;98.30
11764;DHT22;5939;56.522;14.950;2022-08-01T02:34:36;17.40;98.40
11764;DHT22;5939;56.522;14.950;2022-08-01T02:37:03;17.40;98.40
11764;DHT22;5939;56.522;14.950;2022-08-01T02:39:30;17.40;98.40
11764;DHT22;5939;56.522;14.950;2022-08-01T02:42:00;17.40;98.40
11764;DHT22;5939;56.522;14.950;2022-08-01T02:44:32;17.40;98.50
11764;DHT22;5939;56.522;14.950;2022-08-01T02:47:01;17.40;98.50
11764;DHT22;5939;56.522;14.950;2022-08-01T02:49:42;17.40;98.50
11764;DHT22;5939;56.522;14.950;2022-08-01T02:52:12;17.40;98.50
11764;DHT22;5939;56.522;14.950;2022-08-01T02:54:40;17.40;98.60
11764;DHT22;5939;56.522;14.950;2022-08-01T02:57:08;17.40;98.50
11764;DHT22;5939;56.522;14.950;2022-08-01T02:59:37;17.40;98.60
11764;DHT22;5939;56.522;14.950;2022-08-01T03:02:05;17.40;98.70
11764;DHT22;5939;56.522;14.950;2022-08-01T03:04:33;17.40;98.80
11764;DHT22;5939;56.522;14.950;2022-08-01T03:07:02;17.40;98.80
11764;DHT22;5939;56.522;14.950;2022-08-01T03:09:30;17.40;98.80
11764;DHT22;5939;56.522;14.950;2022-08-01T03:11:59;17.40;98.70
11764;DHT22;5939;56.522;14.950;2022-08-01T03:14:27;17.40;98.80
11764;DHT22;5939;56.522;14.950;2022-08-01T03:16:56;17.40;98.80
11764;DHT22;5939;56.522;14.950;2022-08-01T03:19:24;17.40;99.00
11764;DHT22;5939;56.522;14.950;2022-08-01T03:21:52;17.40;99.00
11764;DHT22;5939;56.522;14.950;2022-08-01T03:24:18;17.40;98.90
11764;DHT22;5939;56.522;14.950;2022-08-01T03:26:46;17.40;98.90
11764;DHT22;5939;56.522;14.950;2022-08-01T03:29:16;17.40;99.00
11764;DHT22;5939;56.522;14.950;2022-08-01T03:31:44;17.40;98.90
11764;DHT22;5939;56.522;14.950;2022-08-01T03:34:10;17.40;99.10
11764;DHT22;5939;56.522;14.950;2022-08-01T03:37:03;17.40;98.90
11764;DHT22;5939;56.522;14.950;2022-08-01T03:39:54;17.40;98.90
11764;DHT22;5939;56.522;14.950;2022-08-01T03:42:19;17.40;99.10
11764;DHT22;5939;56.522;14.950;2022-08-01T03:44:54;17.40;99.00
11764;DHT22;5939;56.522;14.950;2022-08-01T03:47:24;17.40;98.80
11764;DHT22;5939;56.522;14.950;2022-08-01T03:49:52;17.40;99.10
11764;DHT22;5939;56.522;14.950;2022-08-01T03:52:19;17.40;99.10
11764;DHT22;5939;56.522;14.950;2022-08-01T03:54:47;17.40;99.00
11764;DHT22;5939;56.522;14.950;2022-08-01T03:57:15;17.40;99.00
11764;DHT22;5939;56.522;14.950;2022-08-01T03:59:42;17.40;99.10
11764;DHT22;5939;56.522;14.950;2022-08-01T04:02:08;17.40;99.00
11764;DHT22;5939;56.522;14.950;2022-08-01T04:04:35;17.40;99.00
11764;DHT22;5939;56.522;14.950;2022-08-01T04:07:01;17.40;99.20
11764;DHT22;5939;56.522;14.950;2022-08-01T04:09:32;17.40;99.40
11764;DHT22;5939;56.522;14.950;2022-08-01T04:11:59;17.40;99.30
11764;DHT22;5939;56.522;14.950;2022-08-01T04:14:26;17.40;99.40
11764;DHT22;5939;56.522;14.950;2022-08-01T04:16:53;17.40;99.30
11764;DHT22;5939;56.522;14.950;2022-08-01T04:19:19;17.40;99.40
11764;DHT22;5939;56.522;14.950;2022-08-01T04:21:45;17.40;99.30
11764;DHT22;5939;56.522;14.950;2022-08-01T04:24:14;17.40;99.40
11764;DHT22;5939;56.522;14.950;2022-08-01T04:26:43;17.40;99.40
11764;DHT22;5939;56.522;14.950;2022-08-01T04:29:09;17.40;99.50
11764;DHT22;5939;56.522;14.950;2022-08-01T04:31:37;17.40;99.50
11764;DHT22;5939;56.522;14.950;2022-08-01T04:34:06;17.40;99.50
11764;DHT22;5939;56.522;14.950;2022-08-01T04:36:34;17.40;99.50
11764;DHT22;5939;56.522;14.950;2022-08-01T04:39:02;17.40;99.60
11764;DHT22;5939;56.522;14.950;2022-08-01T04:41:31;17.40;99.80
11764;DHT22;5939;56.522;14.950;2022-08-01T04:43:58;17.50;99.80
11764;DHT22;5939;56.522;14.950;2022-08-01T04:46:28;17.40;99.80
11764;DHT22;5939;56.522;14.950;2022-08-01T04:48:56;17.50;99.70
11764;DHT22;5939;56.522;14.950;2022-08-01T04:51:22;17.50;99.80
11764;DHT22;5939;56.522;14.950;2022-08-01T04:53:48;17.50;99.90
11764;DHT22;5939;56.522;14.950;2022-08-01T04:56:16;17.50;99.80
11764;DHT22;5939;56.522;14.950;2022-08-01T04:58:42;17.50;99.70
11764;DHT22;5939;56.522;14.950;2022-08-01T05:01:09;17.50;99.80
11764;DHT22;5939;56.522;14.950;2022-08-01T05:03:35;17.50;99.90
11764;DHT22;5939;56.522;14.950;2022-08-01T05:06:01;17.50;99.90
11764;DHT22;5939;56.522;14.950;2022-08-01T05:08:26;17.50;99.80
11764;DHT22;5939;56.522;14.950;2022-08-01T05:10:52;17.50;99.80
11764;DHT22;5939;56.522;14.950;2022-08-01T05:13:18;17.50;99.90
11764;DHT22;5939;56.522;14.950;2022-08-01T05:15:44;17.50;99.90
11764;DHT22;5939;56.522;14.950;2022-08-01T05:18:10;17.50;99.80
11764;DHT22;5939;56.522;14.950;2022-08-01T05:20:36;17.50;99.90
11764;DHT22;5939;56.522;14.950;2022-08-01T05:23:03;17.50;99.90
11764;DHT22;5939;56.522;14.950;2022-08-01T05:25:29;17.50;99.80
11764;DHT22;5939;56.522;14.950;2022-08-01T05:27:54;17.50;99.90
11764;DHT22;5939;56.522;14.950;2022-08-01T05:30:20;17.50;99.90
11764;DHT22;5939;56.522;14.950;2022-08-01T05:32:46;17.50;99.90
11764;DHT22;5939;56.522;14.950;2022-08-01T05:35:11;17.50;99.90
11764;DHT22;5939;56.522;14.950;2022-08-01T05:37:37;17.60;99.90
11764;DHT22;5939;56.522;14.950;2022-08-01T05:40:04;17.60;99.90
11764;DHT22;5939;56.522;14.950;2022-08-01T05:42:30;17.60;99.90
11764;DHT22;5939;56.522;14.950;2022-08-01T05:44:55;17.60;99.90
11764;DHT22;5939;56.522;14.950;2022-08-01T05:47:21;17.60;99.90
11764;DHT22;5939;56.522;14.950;2022-08-01T05:49:47;17.60;99.90
11764;DHT22;5939;56.522;14.950;2022-08-01T05:52:12;17.60;99.90
11764;DHT22;5939;56.522;14.950;2022-08-01T05:54:38;17.60;99.90
11764;DHT22;5939;56.522;14.950;2022-08-01T05:57:04;17.60;99.90
11764;DHT22;5939;56.522;14.950;2022-08-01T05:59:30;17.60;99.90
11764;DHT22;5939;56.522;14.950;2022-08-01T06:01:56;17.60;99.90
11764;DHT22;5939;56.522;14.950;2022-08-01T06:04:22;17.70;99.90
11764;DHT22;5939;56.522;14.950;2022-08-01T06:06:47;17.60;99.90
11764;DHT22;5939;56.522;14.950;2022-08-01T06:09:13;17.70;99.90
11764;DHT22;5939;56.522;14.950;2022-08-01T06:11:39;17.70;99.90
11764;DHT22;5939;56.522;14.950;2022-08-01T06:14:05;17.70;99.90
11764;DHT22;5939;56.522;14.950;2022-08-01T06:16:30;17.70;99.90
11764;DHT22;5939;56.522;14.950;2022-08-01T06:18:56;17.70;99.90
11764;DHT22;5939;56.522;14.950;2022-08-01T06:21:22;17.70;99.90
11764;DHT22;5939;56.522;14.950;2022-08-01T06:23:47;17.80;99.90
11764;DHT22;5939;56.522;14.950;2022-08-01T06:26:13;17.80;99.90
11764;DHT22;5939;56.522;14.950;2022-08-01T06:28:39;17.80;99.90
11764;DHT22;5939;56.522;14.950;2022-08-01T06:31:04;17.80;99.90
11764;DHT22;5939;56.522;14.950;2022-08-01T06:33:30;17.90;99.90
11764;DHT22;5939;56.522;14.950;2022-08-01T06:35:56;17.90;99.90
11764;DHT22;5939;56.522;14.950;2022-08-01T06:38:22;17.90;99.90
11764;DHT22;5939;56.522;14.950;2022-08-01T06:40:49;17.90;99.90
11764;DHT22;5939;56.522;14.950;2022-08-01T06:43:15;17.90;99.90
11764;DHT22;5939;56.522;14.950;2022-08-01T06:45:41;17.90;99.90
11764;DHT22;5939;56.522;14.950;2022-08-01T06:48:06;17.90;99.90
11764;DHT22;5939;56.522;14.950;2022-08-01T06:50:32;18.00;99.90
11764;DHT22;5939;56.522;14.950;2022-08-01T06:52:58;18.00;99.90
11764;DHT22;5939;56.522;14.950;2022-08-01T06:55:23;18.00;99.90
11764;DHT22;5939;56.522;14.950;2022-08-01T06:57:51;18.00;99.90
11764;DHT22;5939;56.522;14.950;2022-08-01T07:00:19;18.10;99.90
11764;DHT22;5939;56.522;14.950;2022-08-01T07:02:48;18.10;99.90
11764;DHT22;5939;56.522;14.950;2022-08-01T07:05:14;18.10;99.90
11764;DHT22;5939;56.522;14.950;2022-08-01T07:07:40;18.20;99.90
11764;DHT22;5939;56.522;14.950;2022-08-01T07:10:06;18.20;99.90
11764;DHT22;5939;56.522;14.950;2022-08-01T07:12:34;18.20;99.90
11764;DHT22;5939;56.522;14.950;2022-08-01T07:15:03;18.30;99.90
11764;DHT22;5939;56.522;14.950;2022-08-01T07:17:29;18.40;99.90
11764;DHT22;5939;56.522;14.950;2022-08-01T07:19:54;18.40;99.90
11764;DHT22;5939;56.522;14.950;2022-08-01T07:22:20;18.50;99.90
11764;DHT22;5939;56.522;14.950;2022-08-01T07:24:46;18.50;99.90
11764;DHT22;5939;56.522;14.950;2022-08-01T07:27:12;18.60;99.90
11764;DHT22;5939;56.522;14.950;2022-08-01T07:29:37;18.70;99.90
11764;DHT22;5939;56.522;14.950;2022-08-01T07:32:03;18.70;99.90
11764;DHT22;5939;56.522;14.950;2022-08-01T07:34:29;18.80;99.90
11764;DHT22;5939;56.522;14.950;2022-08-01T07:36:55;18.80;99.90
11764;DHT22;5939;56.522;14.950;2022-08-01T07:39:21;18.90;99.90
11764;DHT22;5939;56.522;14.950;2022-08-01T07:41:47;19.00;99.90
11764;DHT22;5939;56.522;14.950;2022-08-01T07:44:12;19.10;99.90
11764;DHT22;5939;56.522;14.950;2022-08-01T07:46:39;19.10;99.90
11764;DHT22;5939;56.522;14.950;2022-08-01T07:49:05;19.30;99.90
11764;DHT22;5939;56.522;14.950;2022-08-01T07:51:30;19.40;99.90
11764;DHT22;5939;56.522;14.950;2022-08-01T07:53:56;19.50;99.90
11764;DHT22;5939;56.522;14.950;2022-08-01T07:56:22;19.60;99.90
11764;DHT22;5939;56.522;14.950;2022-08-01T07:58:49;19.70;99.90
11764;DHT22;5939;56.522;14.950;2022-08-01T08:01:15;19.80;99.90
11764;DHT22;5939;56.522;14.950;2022-08-01T08:03:41;19.90;99.90
11764;DHT22;5939;56.522;14.950;2022-08-01T08:06:07;20.00;99.90
11764;DHT22;5939;56.522;14.950;2022-08-01T08:08:32;20.20;99.90
11764;DHT22;5939;56.522;14.950;2022-08-01T08:11:00;20.30;99.90
11764;DHT22;5939;56.522;14.950;2022-08-01T08:13:26;20.40;99.90
11764;DHT22;5939;56.522;14.950;2022-08-01T08:15:52;20.50;99.90
11764;DHT22;5939;56.522;14.950;2022-08-01T08:18:18;20.60;99.90
11764;DHT22;5939;56.522;14.950;2022-08-01T08:20:43;20.70;99.90
11764;DHT22;5939;56.522;14.950;2022-08-01T08:23:09;20.80;99.90
11764;DHT22;5939;56.522;14.950;2022-08-01T08:25:53;20.90;99.90
11764;DHT22;5939;56.522;14.950;2022-08-01T08:28:19;21.10;99.90
11764;DHT22;5939;56.522;14.950;2022-08-01T08:30:45;21.20;99.90
11764;DHT22;5939;56.522;14.950;2022-08-01T08:33:10;21.30;99.90
11764;DHT22;5939;56.522;14.950;2022-08-01T08:35:39;21.40;99.90
11764;DHT22;5939;56.522;14.950;2022-08-01T08:38:05;21.50;99.90
11764;DHT22;5939;56.522;14.950;2022-08-01T08:40:32;21.60;99.90
11764;DHT22;5939;56.522;14.950;2022-08-01T08:43:00;21.70;99.90
11764;DHT22;5939;56.522;14.950;2022-08-01T08:45:26;21.90;99.90
11764;DHT22;5939;56.522;14.950;2022-08-01T08:47:53;22.00;99.90
11764;DHT22;5939;56.522;14.950;2022-08-01T08:50:20;22.10;99.90
11764;DHT22;5939;56.522;14.950;2022-08-01T08:52:46;22.20;99.90
11764;DHT22;5939;56.522;14.950;2022-08-01T08:55:16;22.30;99.90
11764;DHT22;5939;56.522;14.950;2022-08-01T08:57:44;22.40;99.90
11764;DHT22;5939;56.522;14.950;2022-08-01T09:00:10;22.50;99.90
11764;DHT22;5939;56.522;14.950;2022-08-01T09:02:44;22.60;99.90
11764;DHT22;5939;56.522;14.950;2022-08-01T09:05:11;22.70;99.90
11764;DHT22;5939;56.522;14.950;2022-08-01T09:07:37;22.80;99.90
11764;DHT22;5939;56.522;14.950;2022-08-01T09:10:03;22.80;99.90
11764;DHT22;5939;56.522;14.950;2022-08-01T09:12:29;22.90;99.90
11764;DHT22;5939;56.522;14.950;2022-08-01T09:14:55;23.00;99.90
11764;DHT22;5939;56.522;14.950;2022-08-01T09:17:20;23.10;99.90
11764;DHT22;5939;56.522;14.950;2022-08-01T09:19:49;23.20;99.90
11764;DHT22;5939;56.522;14.950;2022-08-01T09:22:22;23.30;99.90
11764;DHT22;5939;56.522;14.950;2022-08-01T09:27:26;23.40;99.90
11764;DHT22;5939;56.522;14.950;2022-08-01T09:29:52;23.50;99.80
11764;DHT22;5939;56.522;14.950;2022-08-01T09:32:19;23.60;99.90
11764;DHT22;5939;56.522;14.950;2022-08-01T09:34:45;23.60;99.90
11764;DHT22;5939;56.522;14.950;2022-08-01T09:37:13;23.70;99.90
11764;DHT22;5939;56.522;14.950;2022-08-01T09:39:42;23.80;99.90
11764;DHT22;5939;56.522;14.950;2022-08-01T09:42:24;23.90;99.90
11764;DHT22;5939;56.522;14.950;2022-08-01T09:44:51;23.90;99.90
11764;DHT22;5939;56.522;14.950;2022-08-01T09:47:18;24.00;99.90
11764;DHT22;5939;56.522;14.950;2022-08-01T09:49:53;24.10;99.90
11764;DHT22;5939;56.522;14.950;2022-08-01T09:52:22;24.20;99.90
11764;DHT22;5939;56.522;14.950;2022-08-01T09:55:00;24.30;99.80
11764;DHT22;5939;56.522;14.950;2022-08-01T09:57:27;24.30;99.70
11764;DHT22;5939;56.522;14.950;2022-08-01T09:59:55;24.50;99.80
11764;DHT22;5939;56.522;14.950;2022-08-01T10:02:35;24.50;99.90
11764;DHT22;5939;56.522;14.950;2022-08-01T10:05:11;24.60;99.80
11764;DHT22;5939;56.522;14.950;2022-08-01T10:07:55;24.70;99.80
11764;DHT22;5939;56.522;14.950;2022-08-01T10:10:21;24.80;99.70
11764;DHT22;5939;56.522;14.950;2022-08-01T10:12:47;24.90;99.80
11764;DHT22;5939;56.522;14.950;2022-08-01T10:15:18;25.00;99.50
11764;DHT22;5939;56.522;14.950;2022-08-01T10:17:57;25.10;99.60
11764;DHT22;5939;56.522;14.950;2022-08-01T10:20:26;25.10;99.40
11764;DHT22;5939;56.522;14.950;2022-08-01T10:22:53;25.20;99.10
11764;DHT22;5939;56.522;14.950;2022-08-01T10:25:20;25.20;98.90
11764;DHT22;5939;56.522;14.950;2022-08-01T10:27:49;25.20;98.80
11764;DHT22;5939;56.522;14.950;2022-08-01T10:30:17;25.20;98.70
11764;DHT22;5939;56.522;14.950;2022-08-01T10:32:46;25.20;98.60
11764;DHT22;5939;56.522;14.950;2022-08-01T10:35:12;25.20;98.60
11764;DHT22;5939;56.522;14.950;2022-08-01T10:37:43;25.20;98.50
11764;DHT22;5939;56.522;14.950;2022-08-01T10:40:11;25.20;98.40
11764;DHT22;5939;56.522;14.950;2022-08-01T10:42:42;25.20;98.40
11764;DHT22;5939;56.522;14.950;2022-08-01T10:45:13;25.20;98.30
11764;DHT22;5939;56.522;14.950;2022-08-01T10:47:51;25.20;98.20
11764;DHT22;5939;56.522;14.950;2022-08-01T10:50:27;25.20;98.20
11764;DHT22;5939;56.522;14.950;2022-08-01T10:53:14;25.20;98.20
11764;DHT22;5939;56.522;14.950;2022-08-01T10:58:35;25.20;98.30
11764;DHT22;5939;56.522;14.950;2022-08-01T11:09:28;25.30;98.40
11764;DHT22;5939;56.522;14.950;2022-08-01T11:12:12;25.30;98.50
11764;DHT22;5939;56.522;14.950;2022-08-01T11:20:08;25.40;98.50
11764;DHT22;5939;56.522;14.950;2022-08-01T11:30:53;25.40;98.40
11764;DHT22;5939;56.522;14.950;2022-08-01T11:38:42;25.40;98.30
11764;DHT22;5939;56.522;14.950;2022-08-01T11:41:24;25.40;98.30
11764;DHT22;5939;56.522;14.950;2022-08-01T11:44:14;25.40;98.30
11764;DHT22;5939;56.522;14.950;2022-08-01T11:46:53;25.40;98.40
11764;DHT22;5939;56.522;14.950;2022-08-01T11:52:17;25.40;98.30
11764;DHT22;5939;56.522;14.950;2022-08-01T11:57:24;25.40;98.30
11764;DHT22;5939;56.522;14.950;2022-08-01T11:59:55;25.40;98.40
11764;DHT22;5939;56.522;14.950;2022-08-01T12:05:00;25.40;98.50
11764;DHT22;5939;56.522;14.950;2022-08-01T12:07:28;25.30;98.40
11764;DHT22;5939;56.522;14.950;2022-08-01T12:10:01;25.30;98.30
11764;DHT22;5939;56.522;14.950;2022-08-01T12:12:28;25.30;98.40
11764;DHT22;5939;56.522;14.950;2022-08-01T12:14:57;25.30;98.30
11764;DHT22;5939;56.522;14.950;2022-08-01T12:17:35;25.30;98.30
11764;DHT22;5939;56.522;14.950;2022-08-01T12:20:06;25.30;98.30
11764;DHT22;5939;56.522;14.950;2022-08-01T12:22:32;25.30;98.40
11764;DHT22;5939;56.522;14.950;2022-08-01T12:25:17;25.30;98.30
11764;DHT22;5939;56.522;14.950;2022-08-01T12:27:45;25.30;98.30
11764;DHT22;5939;56.522;14.950;2022-08-01T12:30:16;25.30;98.40
11764;DHT22;5939;56.522;14.950;2022-08-01T12:32:45;25.30;98.40
11764;DHT22;5939;56.522;14.950;2022-08-01T12:35:13;25.20;98.40
11764;DHT22;5939;56.522;14.950;2022-08-01T12:37:44;25.20;98.50
11764;DHT22;5939;56.522;14.950;2022-08-01T12:40:18;25.20;98.50
11764;DHT22;5939;56.522;14.950;2022-08-01T12:42:47;25.20;98.50
11764;DHT22;5939;56.522;14.950;2022-08-01T12:45:16;25.20;98.50
11764;DHT22;5939;56.522;14.950;2022-08-01T12:47:43;25.20;98.50
11764;DHT22;5939;56.522;14.950;2022-08-01T12:50:20;25.20;98.60
11764;DHT22;5939;56.522;14.950;2022-08-01T12:52:47;25.10;98.50
11764;DHT22;5939;56.522;14.950;2022-08-01T12:55:15;25.10;98.50
11764;DHT22;5939;56.522;14.950;2022-08-01T12:57:44;25.10;98.40
11764;DHT22;5939;56.522;14.950;2022-08-01T13:00:24;25.00;98.50
11764;DHT22;5939;56.522;14.950;2022-08-01T13:05:27;25.00;98.40
11764;DHT22;5939;56.522;14.950;2022-08-01T13:07:54;25.00;98.40
11764;DHT22;5939;56.522;14.950;2022-08-01T13:10:28;25.00;98.40
11764;DHT22;5939;56.522;14.950;2022-08-01T13:12:57;24.90;98.40
11764;DHT22;5939;56.522;14.950;2022-08-01T13:15:30;24.90;98.40
11764;DHT22;5939;56.522;14.950;2022-08-01T13:18:21;24.80;98.40
11764;DHT22;5939;56.522;14.950;2022-08-01T13:20:46;24.80;98.50
11764;DHT22;5939;56.522;14.950;2022-08-01T13:23:15;24.80;98.50
11764;DHT22;5939;56.522;14.950;2022-08-01T13:26:07;24.80;98.20
11764;DHT22;5939;56.522;14.950;2022-08-01T13:28:33;24.80;98.50
11764;DHT22;5939;56.522;14.950;2022-08-01T13:31:05;24.70;98.50
11764;DHT22;5939;56.522;14.950;2022-08-01T13:33:47;24.70;98.60
11764;DHT22;5939;56.522;14.950;2022-08-01T13:36:14;24.70;98.60
11764;DHT22;5939;56.522;14.950;2022-08-01T13:38:42;24.60;98.50
11764;DHT22;5939;56.522;14.950;2022-08-01T13:41:27;24.60;98.70
11764;DHT22;5939;56.522;14.950;2022-08-01T13:43:53;24.60;98.70
11764;DHT22;5939;56.522;14.950;2022-08-01T13:46:18;24.60;98.70
11764;DHT22;5939;56.522;14.950;2022-08-01T13:48:44;24.60;98.60
11764;DHT22;5939;56.522;14.950;2022-08-01T13:51:10;24.50;98.70
11764;DHT22;5939;56.522;14.950;2022-08-01T13:53:36;24.50;98.70
11764;DHT22;5939;56.522;14.950;2022-08-01T13:56:02;24.50;98.70
11764;DHT22;5939;56.522;14.950;2022-08-01T13:58:28;24.50;98.70
11764;DHT22;5939;56.522;14.950;2022-08-01T14:00:54;24.40;98.70
11764;DHT22;5939;56.522;14.950;2022-08-01T14:03:21;24.40;98.70
11764;DHT22;5939;56.522;14.950;2022-08-01T14:05:47;24.30;98.70
11764;DHT22;5939;56.522;14.950;2022-08-01T14:08:12;24.30;98.70
11764;DHT22;5939;56.522;14.950;2022-08-01T14:10:38;24.30;98.70
11764;DHT22;5939;56.522;14.950;2022-08-01T14:13:04;24.30;98.70
11764;DHT22;5939;56.522;14.950;2022-08-01T14:15:31;24.30;98.70
11764;DHT22;5939;56.522;14.950;2022-08-01T14:17:57;24.30;98.70
11764;DHT22;5939;56.522;14.950;2022-08-01T14:20:23;24.20;98.70
11764;DHT22;5939;56.522;14.950;2022-08-01T14:22:49;24.20;98.70
11764;DHT22;5939;56.522;14.950;2022-08-01T14:25:14;24.20;98.70
11764;DHT22;5939;56.522;14.950;2022-08-01T14:27:40;24.20;98.70
11764;DHT22;5939;56.522;14.950;2022-08-01T14:30:07;24.20;98.70
11764;DHT22;5939;56.522;14.950;2022-08-01T14:32:34;24.10;98.70
11764;DHT22;5939;56.522;14.950;2022-08-01T14:35:04;24.10;98.70
11764;DHT22;5939;56.522;14.950;2022-08-01T14:37:30;24.10;98.80
11764;DHT22;5939;56.522;14.950;2022-08-01T14:39:57;24.00;98.70
11764;DHT22;5939;56.522;14.950;2022-08-01T14:42:23;24.00;98.80
11764;DHT22;5939;56.522;14.950;2022-08-01T14:44:48;24.00;98.80
11764;DHT22;5939;56.522;14.950;2022-08-01T14:47:14;24.00;98.80
11764;DHT22;5939;56.522;14.950;2022-08-01T14:49:40;23.90;98.80
11764;DHT22;5939;56.522;14.950;2022-08-01T14:52:06;23.90;98.80
11764;DHT22;5939;56.522;14.950;2022-08-01T14:54:31;23.90;98.80
11764;DHT22;5939;56.522;14.950;2022-08-01T14:57:05;23.90;98.50
11764;DHT22;5939;56.522;14.950;2022-08-01T14:59:30;23.90;98.80
11764;DHT22;5939;56.522;14.950;2022-08-01T15:01:56;23.80;98.80
11764;DHT22;5939;56.522;14.950;2022-08-01T15:04:22;23.80;99.00
11764;DHT22;5939;56.522;14.950;2022-08-01T15:06:47;23.80;98.80
11764;DHT22;5939;56.522;14.950;2022-08-01T15:09:13;23.80;98.80
11764;DHT22;5939;56.522;14.950;2022-08-01T15:11:39;23.80;98.90
11764;DHT22;5939;56.522;14.950;2022-08-01T15:14:04;23.70;98.90
11764;DHT22;5939;56.522;14.950;2022-08-01T15:16:49;23.70;98.90
11764;DHT22;5939;56.522;14.950;2022-08-01T15:19:14;23.70;98.90
11764;DHT22;5939;56.522;14.950;2022-08-01T15:21:40;23.70;98.90
11764;DHT22;5939;56.522;14.950;2022-08-01T15:24:06;23.60;98.90
11764;DHT22;5939;56.522;14.950;2022-08-01T15:26:32;23.70;99.00
11764;DHT22;5939;56.522;14.950;2022-08-01T15:28:57;23.60;98.90
11764;DHT22;5939;56.522;14.950;2022-08-01T15:31:24;23.60;99.00
11764;DHT22;5939;56.522;14.950;2022-08-01T15:33:49;23.50;99.00
11764;DHT22;5939;56.522;14.950;2022-08-01T15:36:15;23.50;99.00
11764;DHT22;5939;56.522;14.950;2022-08-01T15:38:41;23.50;99.00
11764;DHT22;5939;56.522;14.950;2022-08-01T15:41:06;23.50;99.00
11764;DHT22;5939;56.522;14.950;2022-08-01T15:43:32;23.50;99.00
11764;DHT22;5939;56.522;14.950;2022-08-01T15:45:58;23.50;99.00
11764;DHT22;5939;56.522;14.950;2022-08-01T15:48:24;23.40;99.10
11764;DHT22;5939;56.522;14.950;2022-08-01T15:50:49;23.50;99.10
11764;DHT22;5939;56.522;14.950;2022-08-01T15:53:15;23.40;99.10
11764;DHT22;5939;56.522;14.950;2022-08-01T15:55:41;23.40;99.10
11764;DHT22;5939;56.522;14.950;2022-08-01T15:58:10;23.40;99.10
11764;DHT22;5939;56.522;14.950;2022-08-01T16:00:35;23.40;99.20
11764;DHT22;5939;56.522;14.950;2022-08-01T16:03:01;23.40;99.20
11764;DHT22;5939;56.522;14.950;2022-08-01T16:05:27;23.30;99.20
11764;DHT22;5939;56.522;14.950;2022-08-01T16:07:52;23.30;99.20
11764;DHT22;5939;56.522;14.950;2022-08-01T16:10:18;23.30;99.20
11764;DHT22;5939;56.522;14.950;2022-08-01T16:12:44;23.30;99.20
11764;DHT22;5939;56.522;14.950;2022-08-01T16:15:10;23.30;99.20
11764;DHT22;5939;56.522;14.950;2022-08-01T16:17:35;23.30;99.20
11764;DHT22;5939;56.522;14.950;2022-08-01T16:20:01;23.30;99.20
11764;DHT22;5939;56.522;14.950;2022-08-01T16:22:27;23.30;99.20
11764;DHT22;5939;56.522;14.950;2022-08-01T16:24:53;23.20;99.20
11764;DHT22;5939;56.522;14.950;2022-08-01T16:27:19;23.30;99.30
11764;DHT22;5939;56.522;14.950;2022-08-01T16:29:44;23.20;99.20
11764;DHT22;5939;56.522;14.950;2022-08-01T16:32:10;23.20;99.30